sensor_id;sensor_type;location;lat;lon;timestamp;P1;durP1;ratioP1;P2;durP2;ratioP2
42518;SDS011;28147;47.520;18.920;2022-12-18T03:51:34;26.00;;;13.85;;
42518;SDS011;28147;47.520;18.920;2022-12-18T08:10:15;24.70;;;9.95;;
42518;SDS011;28147;47.520;18.920;2022-12-18T08:13:39;20.05;;;9.27;;
42518;SDS011;28147;47.520;18.920;2022-12-18T08:18:56;21.83;;;9.15;;
42518;SDS011;28147;47.520;18.920;2022-12-18T08:21:23;21.95;;;8.15;;
42518;SDS011;28147;47.520;18.920;2022-12-18T08:26:06;23.48;;;10.63;;
42518;SDS011;28147;47.520;18.920;2022-12-18T08:28:32;28.42;;;10.50;;
42518;SDS011;28147;47.520;18.920;2022-12-18T08:30:59;26.20;;;10.57;;
42518;SDS011;28147;47.520;18.920;2022-12-18T08:33:24;20.30;;;9.90;;
42518;SDS011;28147;47.520;18.920;2022-12-18T08:35:51;30.58;;;12.10;;
42518;SDS011;28147;47.520;18.920;2022-12-18T08:40:18;27.13;;;12.32;;
42518;SDS011;28147;47.520;18.920;2022-12-18T08:42:44;23.80;;;10.13;;
42518;SDS011;28147;47.520;18.920;2022-12-18T08:45:28;24.50;;;10.13;;
42518;SDS011;28147;47.520;18.920;2022-12-18T08:47:53;17.88;;;8.77;;
42518;SDS011;28147;47.520;18.920;2022-12-18T08:50:19;15.05;;;7.53;;
42518;SDS011;28147;47.520;18.920;2022-12-18T08:52:45;21.50;;;8.93;;
42518;SDS011;28147;47.520;18.920;2022-12-18T08:55:10;24.38;;;9.43;;
42518;SDS011;28147;47.520;18.920;2022-12-18T08:57:35;21.38;;;8.15;;
42518;SDS011;28147;47.520;18.920;2022-12-18T09:00:01;19.80;;;9.93;;
42518;SDS011;28147;47.520;18.920;2022-12-18T09:02:27;23.58;;;10.23;;
42518;SDS011;28147;47.520;18.920;2022-12-18T09:04:52;27.85;;;11.32;;
42518;SDS011;28147;47.520;18.920;2022-12-18T09:07:18;24.60;;;9.82;;
42518;SDS011;28147;47.520;18.920;2022-12-18T09:09:43;26.83;;;10.98;;
42518;SDS011;28147;47.520;18.920;2022-12-18T09:12:09;19.40;;;9.90;;
42518;SDS011;28147;47.520;18.920;2022-12-18T09:14:34;23.58;;;9.27;;
42518;SDS011;28147;47.520;18.920;2022-12-18T09:17:00;27.45;;;10.27;;
42518;SDS011;28147;47.520;18.920;2022-12-18T09:19:26;21.70;;;10.32;;
42518;SDS011;28147;47.520;18.920;2022-12-18T09:21:51;21.85;;;9.25;;
42518;SDS011;28147;47.520;18.920;2022-12-18T09:24:17;20.58;;;8.27;;
42518;SDS011;28147;47.520;18.920;2022-12-18T09:26:42;21.92;;;7.80;;
42518;SDS011;28147;47.520;18.920;2022-12-18T09:29:08;17.45;;;7.97;;
42518;SDS011;28147;47.520;18.920;2022-12-18T09:31:34;21.20;;;8.18;;
42518;SDS011;28147;47.520;18.920;2022-12-18T09:34:00;16.48;;;7.40;;
42518;SDS011;28147;47.520;18.920;2022-12-18T09:36:26;21.55;;;9.57;;
42518;SDS011;28147;47.520;18.920;2022-12-18T09:38:51;22.98;;;9.65;;
42518;SDS011;28147;47.520;18.920;2022-12-18T09:41:33;26.55;;;9.35;;
42518;SDS011;28147;47.520;18.920;2022-12-18T09:46:39;23.40;;;10.98;;
42518;SDS011;28147;47.520;18.920;2022-12-18T09:49:11;29.08;;;11.98;;
42518;SDS011;28147;47.520;18.920;2022-12-18T09:51:41;26.60;;;11.82;;
42518;SDS011;28147;47.520;18.920;2022-12-18T09:54:20;27.38;;;10.90;;
42518;SDS011;28147;47.520;18.920;2022-12-18T09:56:49;31.40;;;12.73;;
42518;SDS011;28147;47.520;18.920;2022-12-18T09:59:20;24.77;;;11.45;;
42518;SDS011;28147;47.520;18.920;2022-12-18T10:01:48;22.45;;;10.05;;
42518;SDS011;28147;47.520;18.920;2022-12-18T10:04:14;22.23;;;10.63;;
42518;SDS011;28147;47.520;18.920;2022-12-18T10:06:52;25.52;;;11.43;;
42518;SDS011;28147;47.520;18.920;2022-12-18T10:09:58;28.85;;;10.48;;
42518;SDS011;28147;47.520;18.920;2022-12-18T10:15:24;22.30;;;10.70;;
42518;SDS011;28147;47.520;18.920;2022-12-18T10:20:43;25.33;;;11.40;;
42518;SDS011;28147;47.520;18.920;2022-12-18T10:25:53;25.60;;;10.40;;
42518;SDS011;28147;47.520;18.920;2022-12-18T10:28:19;25.90;;;11.68;;
42518;SDS011;28147;47.520;18.920;2022-12-18T10:30:46;25.10;;;10.43;;
42518;SDS011;28147;47.520;18.920;2022-12-18T10:33:16;29.27;;;12.27;;
42518;SDS011;28147;47.520;18.920;2022-12-18T10:35:44;26.55;;;10.65;;
42518;SDS011;28147;47.520;18.920;2022-12-18T10:43:20;26.98;;;11.43;;
42518;SDS011;28147;47.520;18.920;2022-12-18T10:48:41;28.20;;;11.57;;
42518;SDS011;28147;47.520;18.920;2022-12-18T10:51:28;29.40;;;12.55;;
42518;SDS011;28147;47.520;18.920;2022-12-18T10:56:27;26.30;;;11.15;;
42518;SDS011;28147;47.520;18.920;2022-12-18T10:58:56;25.25;;;10.20;;
42518;SDS011;28147;47.520;18.920;2022-12-18T11:01:53;27.88;;;11.15;;
42518;SDS011;28147;47.520;18.920;2022-12-18T11:04:23;26.98;;;10.95;;
42518;SDS011;28147;47.520;18.920;2022-12-18T11:07:03;24.98;;;11.02;;
42518;SDS011;28147;47.520;18.920;2022-12-18T11:09:31;27.98;;;11.80;;
42518;SDS011;28147;47.520;18.920;2022-12-18T11:11:59;28.52;;;13.00;;
42518;SDS011;28147;47.520;18.920;2022-12-18T11:14:35;25.63;;;10.63;;
42518;SDS011;28147;47.520;18.920;2022-12-18T11:17:22;25.73;;;11.63;;
42518;SDS011;28147;47.520;18.920;2022-12-18T11:19:58;21.77;;;10.02;;
42518;SDS011;28147;47.520;18.920;2022-12-18T11:22:26;23.30;;;9.30;;
42518;SDS011;28147;47.520;18.920;2022-12-18T11:27:37;25.58;;;10.07;;
42518;SDS011;28147;47.520;18.920;2022-12-18T11:30:21;20.85;;;9.93;;
42518;SDS011;28147;47.520;18.920;2022-12-18T11:32:59;21.55;;;9.93;;
42518;SDS011;28147;47.520;18.920;2022-12-18T11:35:38;26.45;;;9.68;;
42518;SDS011;28147;47.520;18.920;2022-12-18T11:38:13;23.52;;;9.85;;
42518;SDS011;28147;47.520;18.920;2022-12-18T11:43:32;23.45;;;9.98;;
42518;SDS011;28147;47.520;18.920;2022-12-18T11:46:14;22.67;;;11.13;;
42518;SDS011;28147;47.520;18.920;2022-12-18T11:48:52;22.90;;;9.65;;
42518;SDS011;28147;47.520;18.920;2022-12-18T11:51:29;21.83;;;10.17;;
42518;SDS011;28147;47.520;18.920;2022-12-18T11:54:08;24.85;;;9.70;;
42518;SDS011;28147;47.520;18.920;2022-12-18T11:56:49;19.00;;;8.60;;
42518;SDS011;28147;47.520;18.920;2022-12-18T12:01:51;17.80;;;7.65;;
42518;SDS011;28147;47.520;18.920;2022-12-18T12:15:23;15.43;;;7.68;;
42518;SDS011;28147;47.520;18.920;2022-12-18T12:17:55;19.80;;;8.73;;
42518;SDS011;28147;47.520;18.920;2022-12-18T12:20:49;19.73;;;8.43;;
42518;SDS011;28147;47.520;18.920;2022-12-18T12:24:28;20.95;;;10.40;;
42518;SDS011;28147;47.520;18.920;2022-12-18T12:26:30;24.20;;;11.35;;
42518;SDS011;28147;47.520;18.920;2022-12-18T12:29:09;18.92;;;8.13;;
42518;SDS011;28147;47.520;18.920;2022-12-18T12:34:23;13.20;;;5.82;;
42518;SDS011;28147;47.520;18.920;2022-12-18T12:39:38;17.60;;;7.15;;
42518;SDS011;28147;47.520;18.920;2022-12-18T12:45:22;19.88;;;7.00;;
42518;SDS011;28147;47.520;18.920;2022-12-18T12:49:14;12.75;;;6.55;;
42518;SDS011;28147;47.520;18.920;2022-12-18T12:51:44;16.42;;;7.38;;
42518;SDS011;28147;47.520;18.920;2022-12-18T12:54:19;14.35;;;6.20;;
42518;SDS011;28147;47.520;18.920;2022-12-18T13:00:13;14.48;;;7.30;;
42518;SDS011;28147;47.520;18.920;2022-12-18T13:02:49;14.13;;;6.43;;
42518;SDS011;28147;47.520;18.920;2022-12-18T13:05:21;18.13;;;6.30;;
42518;SDS011;28147;47.520;18.920;2022-12-18T13:23:31;16.73;;;8.43;;
42518;SDS011;28147;47.520;18.920;2022-12-18T13:36:16;21.27;;;9.82;;
42518;SDS011;28147;47.520;18.920;2022-12-18T13:38:41;23.95;;;9.68;;
42518;SDS011;28147;47.520;18.920;2022-12-18T13:46:27;20.95;;;9.10;;
42518;SDS011;28147;47.520;18.920;2022-12-18T13:49:43;23.23;;;10.00;;
42518;SDS011;28147;47.520;18.920;2022-12-18T14:02:23;22.83;;;9.93;;
42518;SDS011;28147;47.520;18.920;2022-12-18T14:04:50;25.05;;;9.27;;
42518;SDS011;28147;47.520;18.920;2022-12-18T14:09:58;22.17;;;9.98;;
42518;SDS011;28147;47.520;18.920;2022-12-18T14:16:15;22.70;;;9.90;;
42518;SDS011;28147;47.520;18.920;2022-12-18T14:26:26;21.55;;;10.15;;
42518;SDS011;28147;47.520;18.920;2022-12-18T14:31:30;18.42;;;8.98;;
42518;SDS011;28147;47.520;18.920;2022-12-18T14:33:56;25.10;;;9.55;;
42518;SDS011;28147;47.520;18.920;2022-12-18T15:35:21;29.00;;;11.25;;
42518;SDS011;28147;47.520;18.920;2022-12-18T15:38:51;26.50;;;11.15;;
42518;SDS011;28147;47.520;18.920;2022-12-18T15:41:42;30.85;;;12.60;;
42518;SDS011;28147;47.520;18.920;2022-12-18T15:44:28;30.15;;;12.80;;
42518;SDS011;28147;47.520;18.920;2022-12-18T15:46:54;31.17;;;14.27;;
42518;SDS011;28147;47.520;18.920;2022-12-18T15:50:33;27.58;;;12.27;;
42518;SDS011;28147;47.520;18.920;2022-12-18T16:08:22;37.55;;;14.73;;
42518;SDS011;28147;47.520;18.920;2022-12-18T16:16:18;31.48;;;13.63;;
42518;SDS011;28147;47.520;18.920;2022-12-18T16:19:37;34.50;;;13.65;;
42518;SDS011;28147;47.520;18.920;2022-12-18T16:22:03;31.63;;;13.43;;
42518;SDS011;28147;47.520;18.920;2022-12-18T16:26:12;30.92;;;12.70;;
42518;SDS011;28147;47.520;18.920;2022-12-18T16:37:05;34.13;;;15.30;;
42518;SDS011;28147;47.520;18.920;2022-12-18T16:40:19;42.08;;;16.80;;
42518;SDS011;28147;47.520;18.920;2022-12-18T16:46:48;33.05;;;13.88;;
42518;SDS011;28147;47.520;18.920;2022-12-18T16:49:14;33.08;;;13.57;;
42518;SDS011;28147;47.520;18.920;2022-12-18T16:56:26;34.65;;;13.68;;
42518;SDS011;28147;47.520;18.920;2022-12-18T17:09:03;37.20;;;14.27;;
42518;SDS011;28147;47.520;18.920;2022-12-18T17:50:41;33.42;;;16.48;;
42518;SDS011;28147;47.520;18.920;2022-12-18T18:08:43;34.13;;;13.68;;
42518;SDS011;28147;47.520;18.920;2022-12-18T18:26:18;36.10;;;15.82;;
42518;SDS011;28147;47.520;18.920;2022-12-18T18:40:39;35.90;;;16.10;;
42518;SDS011;28147;47.520;18.920;2022-12-18T19:10:23;30.30;;;13.30;;
42518;SDS011;28147;47.520;18.920;2022-12-18T19:28:07;30.33;;;12.00;;
42518;SDS011;28147;47.520;18.920;2022-12-18T19:41:05;26.27;;;10.40;;
42518;SDS011;28147;47.520;18.920;2022-12-18T19:45:11;30.58;;;10.52;;
42518;SDS011;28147;47.520;18.920;2022-12-18T19:59:59;24.63;;;10.75;;
42518;SDS011;28147;47.520;18.920;2022-12-18T20:02:24;24.95;;;10.65;;
42518;SDS011;28147;47.520;18.920;2022-12-18T20:04:50;23.73;;;10.77;;
42518;SDS011;28147;47.520;18.920;2022-12-18T20:07:29;27.73;;;10.98;;
42518;SDS011;28147;47.520;18.920;2022-12-18T20:09:56;36.33;;;14.80;;
42518;SDS011;28147;47.520;18.920;2022-12-18T20:12:22;33.55;;;14.50;;
42518;SDS011;28147;47.520;18.920;2022-12-18T20:14:47;42.65;;;17.50;;
42518;SDS011;28147;47.520;18.920;2022-12-18T20:17:13;35.70;;;14.77;;
42518;SDS011;28147;47.520;18.920;2022-12-18T20:19:38;79.88;;;31.02;;
42518;SDS011;28147;47.520;18.920;2022-12-18T20:22:03;44.53;;;18.20;;
42518;SDS011;28147;47.520;18.920;2022-12-18T20:26:31;28.45;;;11.85;;
42518;SDS011;28147;47.520;18.920;2022-12-18T20:29:31;24.15;;;9.70;;
42518;SDS011;28147;47.520;18.920;2022-12-18T20:31:57;28.65;;;12.25;;
42518;SDS011;28147;47.520;18.920;2022-12-18T20:34:23;22.13;;;9.93;;
42518;SDS011;28147;47.520;18.920;2022-12-18T20:36:49;27.58;;;10.73;;
42518;SDS011;28147;47.520;18.920;2022-12-18T20:39:14;23.50;;;10.57;;
42518;SDS011;28147;47.520;18.920;2022-12-18T20:42:56;27.65;;;10.23;;
42518;SDS011;28147;47.520;18.920;2022-12-18T20:45:22;26.45;;;10.90;;
42518;SDS011;28147;47.520;18.920;2022-12-18T20:47:47;24.77;;;9.80;;
42518;SDS011;28147;47.520;18.920;2022-12-18T20:50:12;22.33;;;9.50;;
42518;SDS011;28147;47.520;18.920;2022-12-18T20:52:38;26.83;;;9.85;;
42518;SDS011;28147;47.520;18.920;2022-12-18T20:55:14;23.05;;;9.13;;
42518;SDS011;28147;47.520;18.920;2022-12-18T20:57:40;23.98;;;9.70;;
42518;SDS011;28147;47.520;18.920;2022-12-18T21:00:05;26.08;;;10.25;;
42518;SDS011;28147;47.520;18.920;2022-12-18T21:02:31;24.48;;;9.57;;
42518;SDS011;28147;47.520;18.920;2022-12-18T21:04:57;26.05;;;9.10;;
42518;SDS011;28147;47.520;18.920;2022-12-18T21:07:22;21.73;;;10.05;;
42518;SDS011;28147;47.520;18.920;2022-12-18T21:09:48;20.17;;;8.70;;
42518;SDS011;28147;47.520;18.920;2022-12-18T21:13:01;24.95;;;9.52;;
42518;SDS011;28147;47.520;18.920;2022-12-18T21:15:27;26.55;;;9.75;;
42518;SDS011;28147;47.520;18.920;2022-12-18T21:19:51;25.75;;;10.15;;
42518;SDS011;28147;47.520;18.920;2022-12-18T21:28:17;20.65;;;9.38;;
42518;SDS011;28147;47.520;18.920;2022-12-18T21:30:42;27.73;;;10.30;;
42518;SDS011;28147;47.520;18.920;2022-12-18T21:33:08;26.13;;;10.57;;
42518;SDS011;28147;47.520;18.920;2022-12-18T21:35:43;32.20;;;13.70;;
42518;SDS011;28147;47.520;18.920;2022-12-18T21:39:38;30.00;;;11.88;;
42518;SDS011;28147;47.520;18.920;2022-12-18T21:42:03;28.60;;;12.30;;
42518;SDS011;28147;47.520;18.920;2022-12-18T21:44:39;28.63;;;11.65;;
42518;SDS011;28147;47.520;18.920;2022-12-18T21:48:23;29.33;;;11.77;;
42518;SDS011;28147;47.520;18.920;2022-12-18T21:50:49;29.50;;;13.00;;
42518;SDS011;28147;47.520;18.920;2022-12-18T21:53:14;31.27;;;13.13;;
42518;SDS011;28147;47.520;18.920;2022-12-18T21:55:39;34.25;;;13.68;;
42518;SDS011;28147;47.520;18.920;2022-12-18T22:01:30;33.53;;;14.98;;
42518;SDS011;28147;47.520;18.920;2022-12-18T22:06:09;33.53;;;13.90;;
42518;SDS011;28147;47.520;18.920;2022-12-18T22:08:35;32.60;;;12.88;;
42518;SDS011;28147;47.520;18.920;2022-12-18T22:11:01;32.50;;;12.35;;
42518;SDS011;28147;47.520;18.920;2022-12-18T22:13:27;33.40;;;14.60;;
42518;SDS011;28147;47.520;18.920;2022-12-18T22:15:52;30.52;;;14.10;;
42518;SDS011;28147;47.520;18.920;2022-12-18T22:18:17;32.92;;;12.93;;
42518;SDS011;28147;47.520;18.920;2022-12-18T22:20:45;35.38;;;14.73;;
42518;SDS011;28147;47.520;18.920;2022-12-18T22:23:10;28.05;;;12.73;;
42518;SDS011;28147;47.520;18.920;2022-12-18T22:25:37;34.58;;;14.57;;
42518;SDS011;28147;47.520;18.920;2022-12-18T22:28:02;35.15;;;14.07;;
42518;SDS011;28147;47.520;18.920;2022-12-18T22:31:09;38.88;;;14.75;;
42518;SDS011;28147;47.520;18.920;2022-12-18T22:33:35;33.85;;;14.90;;
42518;SDS011;28147;47.520;18.920;2022-12-18T22:36:04;33.88;;;15.93;;
42518;SDS011;28147;47.520;18.920;2022-12-18T22:40:56;29.05;;;12.48;;
42518;SDS011;28147;47.520;18.920;2022-12-18T22:43:21;41.03;;;15.38;;
42518;SDS011;28147;47.520;18.920;2022-12-18T22:45:46;35.88;;;16.67;;
42518;SDS011;28147;47.520;18.920;2022-12-18T22:48:13;34.20;;;16.95;;
42518;SDS011;28147;47.520;18.920;2022-12-18T22:50:38;38.05;;;17.17;;
42518;SDS011;28147;47.520;18.920;2022-12-18T22:53:04;42.28;;;17.88;;
42518;SDS011;28147;47.520;18.920;2022-12-18T22:55:31;42.20;;;18.33;;
42518;SDS011;28147;47.520;18.920;2022-12-18T22:57:57;38.25;;;17.20;;
42518;SDS011;28147;47.520;18.920;2022-12-18T23:01:13;40.38;;;17.25;;
42518;SDS011;28147;47.520;18.920;2022-12-18T23:10:10;40.55;;;16.23;;
42518;SDS011;28147;47.520;18.920;2022-12-18T23:12:35;41.17;;;17.42;;
42518;SDS011;28147;47.520;18.920;2022-12-18T23:16:08;43.35;;;18.33;;
42518;SDS011;28147;47.520;18.920;2022-12-18T23:20:34;43.47;;;17.13;;
42518;SDS011;28147;47.520;18.920;2022-12-18T23:27:02;38.03;;;16.58;;
42518;SDS011;28147;47.520;18.920;2022-12-18T23:29:35;36.42;;;16.45;;
42518;SDS011;28147;47.520;18.920;2022-12-18T23:35:56;38.53;;;16.63;;
42518;SDS011;28147;47.520;18.920;2022-12-18T23:40:10;36.55;;;15.73;;
42518;SDS011;28147;47.520;18.920;2022-12-18T23:44:22;42.17;;;18.83;;
42518;SDS011;28147;47.520;18.920;2022-12-18T23:46:48;44.30;;;19.15;;
42518;SDS011;28147;47.520;18.920;2022-12-18T23:52:42;40.90;;;17.27;;
